Michigan Logo

Owosso, MI Single Family Real Estate Listings

69 Total Real Estate Listings * Click on table heading to sort
Date Posted Property Type Style Address Price Living Area Lot Size Price/Sq Ft.
2017-12-15 Single Family Cape Cod 1601 Young Owosso, MI 48867 $88,750 1,262 sq. ft. 6,534 sq. ft. $70
2017-12-12 Single Family Ranch 1410 Olmstead Owosso, MI 48867 $94,900 1,704 sq. ft. 10,454 sq. ft. $56
2017-12-12 Single Family Bungalow 812 Division Owosso, MI 48867 $84,820 816 sq. ft. 5,227 sq. ft. $104
2017-12-12 Single Family Ranch 914 Hickory St Owosso, MI 48867 $80,000 1,275 sq. ft. 6,098 sq. ft. $63
2017-12-12 Single Family Ranch 1410 Olmstead Street Owosso, MI 48867 $94,900 1,704 sq. ft. 10,454 sq. ft. $56
2017-12-10 Single Family Ranch 2460 Lexington Owosso, MI 48867 $149,900 1,246 sq. ft. 21,344 sq. ft. $120
2017-12-10 Single Family Ranch 526 Clyde Street Owosso, MI 48867 $57,500 624 sq. ft. 6,970 sq. ft. $92
2017-12-08 Single Family Colonial 5388 Riley Road Owosso, MI 48867 $58,300 2,150 sq. ft. 82,764 sq. ft. $27
2017-12-04 Single Family Cape Cod 824 King Owosso, MI 48867 $152,900 1,620 sq. ft. 20,038 sq. ft. $94
2017-11-28 Single Family 624 Shiawassee Owosso, MI 48867 $59,900 1,126 sq. ft. 5,227 sq. ft. $53
2017-11-28 Single Family 1113 Palmer Owosso, MI 48867 $72,500 1,008 sq. ft. 8,712 sq. ft. $72
2017-11-24 Single Family Bungalow 1412 Lynn Owosso, MI 48867 $63,000 625 sq. ft. 8,712 sq. ft. $101
2017-11-21 Single Family Ranch 1517 Stewart Rd Owosso, MI 48867 $62,900 1,338 sq. ft. 9,148 sq. ft. $47
2017-11-20 Single Family Bungalow 508 Hampton Avenue Owosso, MI 48867 $52,000 624 sq. ft. 5,663 sq. ft. $83
2017-11-20 Single Family Bungalow 607 Cedar Owosso, MI 48867 $58,000 636 sq. ft. 4,356 sq. ft. $91
2017-11-13 Single Family Farmhouse 500 Exchange Owosso, MI 48867 $57,650 1,714 sq. ft. 6,098 sq. ft. $34
2017-11-10 Single Family 210 Michigan Avenue Owosso, MI 48867 $94,000 1,392 sq. ft. 8,276 sq. ft. $68
2017-11-07 Single Family Ranch 1887 Ketegawn Owosso, MI 48867 $159,900 1,798 sq. ft. 26,572 sq. ft. $89
2017-11-07 Single Family Contemporary 1542 Main Owosso, MI 48867 $44,900 1,058 sq. ft. 8,712 sq. ft. $42
2017-11-06 Single Family Ranch 3092 M-21 Owosso, MI 48867 $59,900 1,104 sq. ft. 43,560 sq. ft. $54
2017-11-05 Single Family Ranch 1321 Carr Owosso, MI 48867 $100,000 1,056 sq. ft. 10,454 sq. ft. $95
2017-11-03 Single Family Victorian 713 Oliver Owosso, MI 48867 $495,000 5,813 sq. ft. 72,745 sq. ft. $85
2017-11-03 Single Family Ranch 322 Randolph Street Owosso, MI 48867 $97,900 984 sq. ft. 6,098 sq. ft. $99
2017-11-02 Single Family Farmhouse 623 Washington St Owosso, MI 48867 $69,500 2,100 sq. ft. 8,712 sq. ft. $33
2017-10-27 Single Family Ranch 420 Cedar Street Owosso, MI 48867 $50,000 1,920 sq. ft. 42,253 sq. ft. $26
2017-10-25 Single Family Victorian 605 Pine Owosso, MI 48867 $47,975 1,700 sq. ft. 8,712 sq. ft. $28
2017-10-23 Single Family Ranch 1204 Willow St Owosso, MI 48867 $129,900 1,250 sq. ft. 9,148 sq. ft. $104
2017-10-20 Single Family Colonial 1532 Alturas Owosso, MI 48867 $149,975 1,768 sq. ft. 9,583 sq. ft. $85
2017-10-19 Single Family Bungalow 705 Broadway Owosso, MI 48867 $79,900 1,188 sq. ft. 5,663 sq. ft. $67
2017-10-18 Single Family Bungalow 1011 Dewey Owosso, MI 48867 $72,300 720 sq. ft. 13,504 sq. ft. $100
2017-10-13 Single Family Colonial 424 Genesee Owosso, MI 48867 $72,000 1,240 sq. ft. 8,712 sq. ft. $58
2017-10-10 Single Family 120 Howell Street Owosso, MI 48867 $89,900 3,920 sq. ft.
2017-10-05 Single Family Farmhouse 304 Monroe Street Owosso, MI 48867 $58,900 1,170 sq. ft. 7,405 sq. ft. $50
2017-10-04 Single Family Ranch 1140 Jackson Dr Owosso, MI 48867 $159,900 1,184 sq. ft. 7,405 sq. ft. $135
2017-10-04 Single Family 318 Monroe St Owosso, MI 48867 $55,000 1,176 sq. ft. 4,792 sq. ft. $47
2017-10-03 Single Family 510 Grover St Owosso, MI 48867 $99,999 2,330 sq. ft. 9,583 sq. ft. $43
2017-10-02 Single Family Farmhouse 127 Chipman Owosso, MI 48867 $72,000 1,280 sq. ft. 9,148 sq. ft. $56
2017-09-26 Single Family Ranch 811 Woodlawn Ave Owosso, MI 48867 $59,900 704 sq. ft. 6,970 sq. ft. $85
2017-09-25 Single Family Ranch 706 Ament Owosso, MI 48867 $64,900 1,398 sq. ft. 8,712 sq. ft. $46
2017-09-25 Single Family Bungalow 816 Abrey Avenue Owosso, MI 48867 $49,000 1,132 sq. ft. 5,227 sq. ft. $43
2017-09-20 Single Family Ranch 701 Campbell Drive Owosso, MI 48867 $119,900 1,311 sq. ft. 9,148 sq. ft. $91
2017-09-19 Single Family Ranch 160 Wilkinson Owosso, MI 48867 $200,000 1,664 sq. ft. 43,124 sq. ft. $120
2017-09-12 Single Family 639 Park Owosso, MI 48867 $79,753 1,476 sq. ft. 8,712 sq. ft. $54
2017-09-05 Single Family Farmhouse 440 Williams Street Owosso, MI 48867 $67,500 1,072 sq. ft. 6,534 sq. ft. $63
2017-09-01 Single Family Ranch 635 Ada Street Owosso, MI 48867 $139,900 1,681 sq. ft. 10,890 sq. ft. $83
2017-08-30 Single Family Bungalow 606 Broadway Owosso, MI 48867 $62,500 908 sq. ft. 6,970 sq. ft. $69
2017-08-24 Single Family 1421 Donald Street Owosso, MI 48867 $64,900 1,185 sq. ft. 8,712 sq. ft. $55
2017-08-23 Single Family Farmhouse 439 Main Street Owosso, MI 48867 $69,900 1,664 sq. ft. 8,712 sq. ft. $42
2017-08-15 Single Family 622 Monroe Owosso, MI 48867 $32,000 798 sq. ft. 3,920 sq. ft. $40
2017-08-12 Single Family Bungalow 609 Abrey Avenue Owosso, MI 48867 $72,000 1,319 sq. ft. 10,890 sq. ft. $55
2017-08-08 Single Family 918 Mason Owosso, MI 48867 $54,900 1,142 sq. ft. 8,712 sq. ft. $48
2017-08-07 Single Family Hickory St Owosso, MI 48867 $49,999 2,000 sq. ft. 13,068 sq. ft. $25
2017-07-30 Single Family 138 Cloverbrook Owosso, MI 48867 $295,000 2,870 sq. ft. 26,136 sq. ft. $103
2017-07-26 Single Family Farmhouse 723 Frazer Owosso, MI 48867 $99,900 1,644 sq. ft. 9,148 sq. ft. $61
2017-07-26 Single Family Ranch 2255 Delaney Road Owosso, MI 48867 $169,900 2,118 sq. ft. 40,075 sq. ft. $80
2017-07-13 Single Family 408 Monroe St Owosso, MI 48867 $44,900 2,416 sq. ft. 12,632 sq. ft. $19
2017-06-30 Single Family Historic 615 Saginaw Street Owosso, MI 48867 $84,900 2,100 sq. ft. 9,583 sq. ft. $40
2017-06-29 Single Family 806 Division Owosso, MI 48867 $54,900 1,332 sq. ft. 4,356 sq. ft. $41
2017-06-25 Single Family 1341 Jackson Owosso, MI 48867 $169,900 1,500 sq. ft. 17,860 sq. ft. $113
2017-06-19 Single Family 725 River St Owosso, MI 48867 $64,900 1,945 sq. ft. 6,534 sq. ft. $33
2017-06-14 Single Family Bungalow 708 Wright Owosso, MI 48867 $48,900 708 sq. ft. 5,227 sq. ft. $69
2017-06-03 Single Family Ranch 1331 Stinson Street Owosso, MI 48867 $74,900 896 sq. ft. 8,712 sq. ft. $84
2017-05-21 Single Family 1308 Whitehaven Ct Owosso, MI 48867 $137,900 1,692 sq. ft. 9,148 sq. ft. $82
2017-05-09 Single Family Farmhouse 1206 Corunna Owosso, MI 48867 $49,000 1,350 sq. ft. 4,356 sq. ft. $36
2017-05-03 Single Family Ranch 1825 Osaukie Road Owosso, MI 48867 $119,900 1,160 sq. ft. 65,340 sq. ft. $103
2017-05-01 Single Family 911 Corunna Ave Owosso, MI 48867 $57,500 887 sq. ft. 6,098 sq. ft. $65
2017-02-22 Single Family Ranch 1601 Smith Owosso, MI 48867 $260,000 2,246 sq. ft. 1,715,828 sq. ft. $116
2016-11-11 Single Family 2660 Chipman Owosso, MI 48867 $325,000 4,128 sq. ft. 81,893 sq. ft. $79
2016-04-19 Single Family Free Standing/Detached 635 Third St Owosso, MI 48867 $195,500 2,272 sq. ft. 16,553 sq. ft. $86